Time;durP1;ratioP1;P1;durP2;ratioP2;P2;SDS_P1;SDS_P2;PMS_P1;PMS_P2;Temp;Humidity;BMP_temperature;BMP_pressure;BME280_temperature;BME280_humidity;BME280_pressure;Samples;Min_cycle;Max_cycle;Signal;HPM_P1;HPM_P2
2022/08/01 06:30:29;;;;;;;15.63;3.63;;;;;;;;;;5038630;28;20052;-82
2022/08/01 06:33:02;;;;;;;6.47;2.05;;;;;;;;;;5069956;28;20515;-83
2022/08/01 06:35:33;;;;;;;9.00;2.30;;;;;;;;;;5056437;28;20106;-82
2022/08/01 06:38:11;;;;;;;6.13;2.08;;;;;;;;;;5045228;28;20068;-83
2022/08/01 06:40:39;;;;;;;5.38;2.22;;;;;;;;;;5048276;28;20045;-82
2022/08/01 06:43:07;;;;;;;6.65;2.47;;;;;;;;;;5029922;28;20573;-84
2022/08/01 06:45:36;;;;;;;6.95;2.45;;;;;;;;;;5032305;28;20070;-83
2022/08/01 06:48:04;;;;;;;5.22;2.38;;;;;;;;;;5033027;28;20048;-83
2022/08/01 06:50:37;;;;;;;7.78;2.40;;;;;;;;;;5047361;28;20048;-83
2022/08/01 06:53:05;;;;;;;9.00;2.33;;;;;;;;;;5049479;28;20058;-83
2022/08/01 06:55:57;;;;;;;6.93;2.65;;;;;;;;;;5071350;28;20056;-83
2022/08/01 06:58:31;;;;;;;7.88;2.42;;;;;;;;;;5059088;28;20045;-84
2022/08/01 07:03:52;;;;;;;11.77;2.60;;;;;;;;;;5083842;28;20054;-86
2022/08/01 07:06:33;;;;;;;10.20;3.00;;;;;;;;;;5074902;28;20052;-83
2022/08/01 07:09:03;;;;;;;10.60;2.40;;;;;;;;;;5049750;28;20045;-82
2022/08/01 07:11:41;;;;;;;7.38;2.30;;;;;;;;;;5064311;28;20459;-82
2022/08/01 07:14:09;;;;;;;12.13;3.30;;;;;;;;;;5079384;28;20048;-81
2022/08/01 07:17:01;;;;;;;9.27;2.67;;;;;;;;;;5078882;28;20056;-81
2022/08/01 07:19:33;;;;;;;10.18;3.25;;;;;;;;;;5078371;28;20078;-82
2022/08/01 07:22:06;;;;;;;11.07;3.45;;;;;;;;;;5081796;28;20047;-82
2022/08/01 07:24:34;;;;;;;11.48;3.33;;;;;;;;;;5079028;28;20044;-82
2022/08/01 07:27:01;;;;;;;7.88;3.58;;;;;;;;;;5049153;28;20071;-82
2022/08/01 07:29:53;;;;;;;10.18;3.85;;;;;;;;;;5076270;28;20067;-82
2022/08/01 07:32:48;;;;;;;8.68;3.42;;;;;;;;;;5077490;28;20056;-82
2022/08/01 07:35:20;;;;;;;11.98;3.80;;;;;;;;;;5079734;28;20055;-82
2022/08/01 07:37:53;;;;;;;7.88;3.30;;;;;;;;;;5078303;28;20062;-82
2022/08/01 07:40:22;;;;;;;9.82;3.60;;;;;;;;;;5060569;28;20491;-82
2022/08/01 07:42:49;;;;;;;10.20;3.95;;;;;;;;;;5079899;28;20048;-82
2022/08/01 07:45:27;;;;;;;11.35;3.78;;;;;;;;;;5059079;28;20143;-85
2022/08/01 07:48:37;;;;;;;11.43;3.30;;;;;;;;;;5034597;28;20051;-84
2022/08/01 07:51:19;;;;;;;8.13;3.38;;;;;;;;;;5036310;28;20052;-85
2022/08/01 07:54:01;;;;;;;9.48;3.20;;;;;;;;;;5023768;28;20140;-84
2022/08/01 07:56:31;;;;;;;8.70;3.90;;;;;;;;;;5073098;28;20056;-84
2022/08/01 07:59:38;;;;;;;10.77;3.60;;;;;;;;;;5054517;28;20333;-83
2022/08/01 08:02:17;;;;;;;15.25;3.47;;;;;;;;;;5065445;28;20060;-83
2022/08/01 08:04:59;;;;;;;14.68;3.20;;;;;;;;;;5034556;28;20068;-82
2022/08/01 08:07:41;;;;;;;8.73;2.55;;;;;;;;;;5060758;28;20049;-83
2022/08/01 08:10:39;;;;;;;10.60;3.22;;;;;;;;;;5069930;28;20097;-83
2022/08/01 08:13:07;;;;;;;8.23;2.78;;;;;;;;;;5084409;28;20332;-82
2022/08/01 08:15:35;;;;;;;8.70;2.70;;;;;;;;;;5080773;28;20044;-82
2022/08/01 08:18:09;;;;;;;8.68;3.00;;;;;;;;;;5084025;28;20044;-83
2022/08/01 08:20:47;;;;;;;13.90;3.35;;;;;;;;;;5082829;28;20203;-82
2022/08/01 08:26:37;;;;;;;8.90;2.70;;;;;;;;;;5084040;28;20075;-82
2022/08/01 08:29:11;;;;;;;10.13;3.58;;;;;;;;;;5084422;28;20506;-83
2022/08/01 08:32:04;;;;;;;9.05;3.30;;;;;;;;;;5066798;28;20060;-83
2022/08/01 08:34:32;;;;;;;10.35;2.90;;;;;;;;;;5084380;28;20036;-83
2022/08/01 08:36:59;;;;;;;8.43;2.47;;;;;;;;;;5067743;28;20044;-81
2022/08/01 08:39:29;;;;;;;8.90;2.78;;;;;;;;;;5065235;28;20074;-83
2022/08/01 08:42:09;;;;;;;8.68;2.50;;;;;;;;;;5069594;28;20052;-82
2022/08/01 08:44:35;;;;;;;8.95;3.63;;;;;;;;;;5070119;28;20159;-83
2022/08/01 08:47:05;;;;;;;9.23;2.63;;;;;;;;;;5068239;28;20052;-83
2022/08/01 08:49:37;;;;;;;10.15;3.45;;;;;;;;;;5086359;28;20063;-83
2022/08/01 08:52:18;;;;;;;9.07;3.10;;;;;;;;;;5072110;28;20048;-83
2022/08/01 08:54:46;;;;;;;9.38;3.35;;;;;;;;;;5032059;28;20035;-83
2022/08/01 08:57:15;;;;;;;9.75;3.13;;;;;;;;;;5061974;28;20051;-83
2022/08/01 09:00:09;;;;;;;6.85;2.65;;;;;;;;;;5064783;28;20136;-83
2022/08/01 09:02:43;;;;;;;6.43;2.50;;;;;;;;;;5063750;28;20044;-83
2022/08/01 09:05:11;;;;;;;9.30;2.45;;;;;;;;;;5044484;28;20049;-83
2022/08/01 09:07:52;;;;;;;6.97;2.40;;;;;;;;;;5040849;28;20064;-83
2022/08/01 09:10:30;;;;;;;5.05;2.10;;;;;;;;;;5059397;28;20044;-83
2022/08/01 09:13:05;;;;;;;7.00;1.98;;;;;;;;;;5063463;28;20067;-83
2022/08/01 09:15:50;;;;;;;4.03;2.25;;;;;;;;;;5047576;28;20050;-83
2022/08/01 09:18:44;;;;;;;7.25;2.42;;;;;;;;;;5081053;28;20040;-84
2022/08/01 09:21:22;;;;;;;5.97;2.00;;;;;;;;;;5064767;28;20051;-84
2022/08/01 09:23:52;;;;;;;7.85;2.65;;;;;;;;;;5067815;28;20063;-84
2022/08/01 09:26:30;;;;;;;7.13;2.10;;;;;;;;;;5084926;28;20066;-84
2022/08/01 09:28:59;;;;;;;7.65;1.90;;;;;;;;;;5070643;28;20087;-83
2022/08/01 09:31:41;;;;;;;6.75;1.90;;;;;;;;;;5059153;28;20470;-85
2022/08/01 09:34:32;;;;;;;7.93;1.95;;;;;;;;;;5083516;28;20087;-84
2022/08/01 09:37:03;;;;;;;6.55;2.13;;;;;;;;;;5072757;28;20116;-84
2022/08/01 09:39:42;;;;;;;8.15;2.15;;;;;;;;;;5085357;28;20520;-85
2022/08/01 09:42:24;;;;;;;12.27;2.40;;;;;;;;;;5083221;28;20699;-84
2022/08/01 09:45:01;;;;;;;9.05;2.10;;;;;;;;;;5046736;28;20150;-84
2022/08/01 09:47:39;;;;;;;6.57;2.15;;;;;;;;;;5042074;28;20056;-84
2022/08/01 09:50:08;;;;;;;10.05;1.92;;;;;;;;;;5064328;28;20076;-84
2022/08/01 09:52:37;;;;;;;10.00;2.33;;;;;;;;;;5064340;28;20070;-84
2022/08/01 09:55:33;;;;;;;;;;;;;;;;;;5075402;28;20040;-84
2022/08/01 09:58:12;;;;;;;6.80;1.63;;;;;;;;;;5042681;28;20014;-84
2022/08/01 10:00:39;;;;;;;6.75;1.70;;;;;;;;;;5076202;28;20055;-84
2022/08/01 10:03:22;;;;;;;7.28;2.50;;;;;;;;;;5043607;28;20056;-84
2022/08/01 10:05:53;;;;;;;10.23;1.98;;;;;;;;;;5049045;28;20048;-84
2022/08/01 10:08:24;;;;;;;6.25;1.80;;;;;;;;;;5078305;28;20044;-84
2022/08/01 10:11:21;;;;;;;5.65;1.50;;;;;;;;;;5078105;28;20416;-84
2022/08/01 10:14:02;;;;;;;10.77;2.05;;;;;;;;;;5063408;28;20044;-84
2022/08/01 10:16:30;;;;;;;7.60;1.55;;;;;;;;;;5057799;28;20057;-87
2022/08/01 10:19:06;;;;;;;9.57;1.75;;;;;;;;;;5075794;28;20074;-86
2022/08/01 10:21:54;;;;;;;10.30;1.83;;;;;;;;;;5043987;28;20049;-87
2022/08/01 10:24:39;;;;;;;11.10;1.77;;;;;;;;;;5085370;28;20055;-84
2022/08/01 10:27:51;;;;;;;8.00;1.63;;;;;;;;;;5062039;28;20059;-84
2022/08/01 10:30:52;;;;;;;6.72;1.58;;;;;;;;;;5051579;28;20113;-84
2022/08/01 10:34:20;;;;;;;9.38;2.00;;;;;;;;;;5058158;28;20554;-86
2022/08/01 10:37:03;;;;;;;11.10;1.50;;;;;;;;;;5039755;28;20071;-84
2022/08/01 10:40:57;;;;;;;8.05;2.25;;;;;;;;;;5000840;28;20146;-85
2022/08/01 10:44:02;;;;;;;7.85;1.60;;;;;;;;;;4996491;28;20050;-85
2022/08/01 10:51:46;;;;;;;4.97;1.55;;;;;;;;;;4996398;28;20093;-88
2022/08/01 11:00:41;;;;;;;17.77;2.53;;;;;;;;;;4935519;28;20518;-87
2022/08/01 11:05:35;;;;;;;6.43;1.63;;;;;;;;;;4897862;29;20087;-87
2022/08/01 11:24:59;;;;;;;7.47;1.38;;;;;;;;;;4859628;29;20094;-86
2022/08/01 11:34:27;;;;;;;7.97;1.27;;;;;;;;;;4819023;29;20546;-85
2022/08/01 11:39:22;;;;;;;5.50;1.60;;;;;;;;;;4814563;29;20154;-86
2022/08/01 11:43:21;;;;;;;6.32;1.85;;;;;;;;;;4756603;30;20625;-86
2022/08/01 16:52:16;;;;;;;6.53;1.60;;;;;;;;;;5042775;28;20501;-85
2022/08/01 16:55:05;;;;;;;5.63;1.52;;;;;;;;;;4971093;28;20077;-84
2022/08/01 16:57:37;;;;;;;5.05;1.45;;;;;;;;;;4960216;28;20061;-85
2022/08/01 17:00:23;;;;;;;6.13;1.50;;;;;;;;;;4956125;28;20069;-86
2022/08/01 17:02:53;;;;;;;9.45;1.85;;;;;;;;;;4953768;28;20071;-86
2022/08/01 17:05:23;;;;;;;8.65;1.70;;;;;;;;;;4938669;28;20065;-83
2022/08/01 17:08:21;;;;;;;8.25;1.85;;;;;;;;;;4988171;28;20058;-88
2022/08/01 17:11:03;;;;;;;7.53;1.55;;;;;;;;;;4971150;28;20046;-87
2022/08/01 17:15:08;;;;;;;10.43;1.98;;;;;;;;;;4939300;28;20113;-84
2022/08/01 17:23:24;;;;;;;6.63;1.60;;;;;;;;;;4949339;28;20134;-87
2022/08/01 17:26:23;;;;;;;7.40;1.58;;;;;;;;;;4947896;28;20535;-89
2022/08/01 17:29:45;;;;;;;4.47;1.27;;;;;;;;;;4927643;29;20055;-85
2022/08/01 17:32:14;;;;;;;5.20;1.52;;;;;;;;;;4940199;28;20144;-85
2022/08/01 17:35:44;;;;;;;8.10;2.08;;;;;;;;;;4932743;28;20644;-86
2022/08/01 17:54:03;;;;;;;5.00;1.10;;;;;;;;;;4831983;29;20510;-88
2022/08/01 21:04:39;;;;;;;6.45;1.50;;;;;;;;;;5048887;28;20049;-85
2022/08/01 21:13:44;;;;;;;5.70;1.63;;;;;;;;;;5028459;28;20046;-84
